Time;durP1;ratioP1;P1;durP2;ratioP2;P2;SDS_P1;SDS_P2;PMS_P1;PMS_P2;Temp;Humidity;BMP_temperature;BMP_pressure;BME280_temperature;BME280_humidity;BME280_pressure;Samples;Min_cycle;Max_cycle;Signal;HPM_P1;HPM_P2
2022/06/29 00:01:01;;;;;;;;;;;;;;;;;;2206817;67;1309;-65
2022/06/29 00:03:34;;;;;;;;;;;;;;;;;;2207431;59;1274;-65
2022/06/29 00:06:07;;;;;;;;;;;;;;;;;;2206639;67;1183;-65
2022/06/29 00:08:40;;;;;;;;;;;;;;;;;;2206640;67;1192;-66
2022/06/29 00:11:16;;;;;;;;;;;;;;;;;;2206425;59;1322;-66
2022/06/29 00:13:49;;;;;;;;;;;;;;;;;;2206319;67;1264;-65
2022/06/29 00:16:22;;;;;;;;;;;;;;;;;;2202900;67;1410;-66
2022/06/29 00:18:56;;;;;;;;;;;;;;;;;;2205999;67;2005;-66
2022/06/29 00:21:29;;;;;;;;;;;;;;;;;;2206267;67;1274;-66
2022/06/29 00:24:02;;;;;;;;;;;;;;;;;;2207444;67;2002;-66
2022/06/29 00:26:38;;;;;;;;;;;;;;;;;;2206292;67;1069;-65
2022/06/29 00:29:11;;;;;;;;;;;;;;;;;;2207954;59;1371;-66
2022/06/29 00:31:44;;;;;;;;;;;;;;;;;;2206241;59;2054;-66
2022/06/29 00:34:18;;;;;;;;;;;;;;;;;;2206977;67;1222;-66
2022/06/29 00:36:51;;;;;;;;;;;;;;;;;;2206117;67;1134;-65
2022/06/29 00:39:24;;;;;;;;;;;;;;;;;;2206297;67;1945;-65
2022/06/29 00:42:00;;;;;;;;;;;;;;;;;;2206197;59;1997;-66
2022/06/29 00:44:34;;;;;;;;;;;;;;;;;;2206737;67;1205;-66
2022/06/29 00:47:07;;;;;;;;;;;;;;;;;;2206761;67;1275;-65
2022/06/29 00:49:40;;;;;;;;;;;;;;;;;;2207231;59;1138;-65
2022/06/29 00:52:14;;;;;;;;;;;;;;;;;;2207068;67;1187;-65
2022/06/29 00:54:49;;;;;;;;;;;;;;;;;;2206380;67;1138;-66
2022/06/29 00:57:25;;;;;;;;;;;;;;;;;;2206774;67;1904;-65
2022/06/29 01:00:00;;;;;;;;;;;;;;;;;;2207245;67;1188;-65
2022/06/29 01:02:34;;;;;;;;;;;;;;;;;;2206551;59;1230;-66
2022/06/29 01:05:09;;;;;;;;;;;;;;;;;;2206501;59;1375;-65
2022/06/29 01:07:42;;;;;;;;;;;;;;;;;;2206673;67;1263;-66
2022/06/29 01:10:15;;;;;;;;;;;;;;;;;;2206369;67;1239;-66
2022/06/29 01:12:53;;;;;;;;;;;;;;;;;;2206089;59;1730;-64
2022/06/29 01:15:26;;;;;;;;;;;;;;;;;;2206437;67;1232;-66
2022/06/29 01:18:00;;;;;;;;;;;;;;;;;;2206066;67;1938;-66
2022/06/29 01:20:33;;;;;;;;;;;;;;;;;;2206438;67;1121;-66
2022/06/29 01:23:09;;;;;;;;;;;;;;;;;;2206226;67;1224;-64
2022/06/29 01:25:42;;;;;;;;;;;;;;;;;;2206366;67;1152;-65
2022/06/29 01:28:16;;;;;;;;;;;;;;;;;;2206607;59;1361;-66
2022/06/29 01:30:49;;;;;;;;;;;;;;;;;;2206360;59;2020;-66
2022/06/29 01:33:22;;;;;;;;;;;;;;;;;;2205913;67;1282;-66
2022/06/29 01:35:56;;;;;;;;;;;;;;;;;;2206848;67;1117;-66
2022/06/29 01:38:31;;;;;;;;;;;;;;;;;;2206164;67;1994;-66
2022/06/29 01:41:06;;;;;;;;;;;;;;;;;;2206618;59;2142;-66
2022/06/29 01:43:40;;;;;;;;;;;;;;;;;;2206015;67;1132;-66
2022/06/29 01:46:13;;;;;;;;;;;;;;;;;;2207147;67;1175;-66
2022/06/29 01:48:46;;;;;;;;;;;;;;;;;;2205477;67;1231;-66
2022/06/29 01:51:19;;;;;;;;;;;;;;;;;;2206446;67;1217;-66
2022/06/29 01:53:55;;;;;;;;;;;;;;;;;;2206183;67;1227;-66
2022/06/29 01:56:28;;;;;;;;;;;;;;;;;;2206002;67;1649;-67
2022/06/29 01:59:01;;;;;;;;;;;;;;;;;;2206752;67;1939;-66
2022/06/29 02:01:34;;;;;;;;;;;;;;;;;;2206420;67;1126;-66
2022/06/29 02:04:08;;;;;;;;;;;;;;;;;;2206580;59;1376;-66
2022/06/29 02:06:41;;;;;;;;;;;;;;;;;;2206543;67;1193;-66
2022/06/29 02:09:17;;;;;;;;;;;;;;;;;;2201865;67;1325;-65
2022/06/29 02:11:50;;;;;;;;;;;;;;;;;;2206104;59;1318;-66
2022/06/29 02:14:24;;;;;;;;;;;;;;;;;;2207922;67;1210;-66
2022/06/29 02:16:57;;;;;;;;;;;;;;;;;;2206592;67;1246;-66
2022/06/29 02:19:30;;;;;;;;;;;;;;;;;;2206601;67;1928;-65
2022/06/29 02:22:03;;;;;;;;;;;;;;;;;;2207177;67;1168;-66
2022/06/29 02:24:39;;;;;;;;;;;;;;;;;;2202746;67;1142;-65
2022/06/29 02:27:12;;;;;;;;;;;;;;;;;;2206798;67;1230;-65
2022/06/29 02:29:45;;;;;;;;;;;;;;;;;;2206338;59;1558;-66
2022/06/29 02:35:04;;;;;;;;;;;;;;;;;;2197806;67;1129;-66
2022/06/29 02:37:38;;;;;;;;;;;;;;;;;;2206449;67;1253;-66
2022/06/29 02:40:15;;;;;;;;;;;;;;;;;;2206247;67;1097;-64
2022/06/29 02:42:48;;;;;;;;;;;;;;;;;;2205912;59;2390;-65
2022/06/29 02:45:21;;;;;;;;;;;;;;;;;;2206778;67;1230;-66
2022/06/29 02:47:54;;;;;;;;;;;;;;;;;;2206295;67;1138;-65
2022/06/29 02:50:27;;;;;;;;;;;;;;;;;;2207418;67;1211;-66
2022/06/29 02:53:01;;;;;;;;;;;;;;;;;;2206324;67;1210;-66
2022/06/29 02:55:37;;;;;;;;;;;;;;;;;;2207362;67;1115;-66
2022/06/29 02:58:10;;;;;;;;;;;;;;;;;;2202199;67;1927;-65
2022/06/29 03:00:43;;;;;;;;;;;;;;;;;;2206613;67;1148;-65
2022/06/29 03:03:16;;;;;;;;;;;;;;;;;;2207577;59;2556;-65
2022/06/29 03:05:49;;;;;;;;;;;;;;;;;;2206260;59;1351;-66
2022/06/29 03:08:23;;;;;;;;;;;;;;;;;;2207085;59;1214;-66
2022/06/29 03:10:59;;;;;;;;;;;;;;;;;;2206629;59;1383;-66
2022/06/29 03:13:32;;;;;;;;;;;;;;;;;;2206633;59;1305;-66
2022/06/29 03:16:05;;;;;;;;;;;;;;;;;;2206323;60;1840;-66
2022/06/29 03:18:39;;;;;;;;;;;;;;;;;;2207493;67;1984;-65
2022/06/29 03:21:12;;;;;;;;;;;;;;;;;;2206255;59;1298;-65
2022/06/29 03:23:45;;;;;;;;;;;;;;;;;;2206983;59;1158;-66
2022/06/29 03:26:21;;;;;;;;;;;;;;;;;;2206886;59;1736;-66
2022/06/29 03:28:54;;;;;;;;;;;;;;;;;;2207224;59;1367;-63
2022/06/29 03:31:27;;;;;;;;;;;;;;;;;;2206175;59;1952;-65
2022/06/29 03:34:00;;;;;;;;;;;;;;;;;;2207207;67;1290;-66
2022/06/29 03:36:33;;;;;;;;;;;;;;;;;;2206503;67;1147;-66
2022/06/29 03:39:07;;;;;;;;;;;;;;;;;;2206321;59;1995;-65
2022/06/29 03:41:43;;;;;;;;;;;;;;;;;;2206884;59;2088;-65
2022/06/29 03:44:16;;;;;;;;;;;;;;;;;;2206178;67;1230;-64
2022/06/29 03:46:49;;;;;;;;;;;;;;;;;;2206790;67;1129;-64
2022/06/29 03:49:22;;;;;;;;;;;;;;;;;;2206350;67;1330;-64
2022/06/29 03:51:55;;;;;;;;;;;;;;;;;;2206439;60;1217;-66
2022/06/29 03:54:29;;;;;;;;;;;;;;;;;;2206563;67;1208;-66
2022/06/29 03:57:05;;;;;;;;;;;;;;;;;;2206504;67;1128;-65
2022/06/29 03:59:38;;;;;;;;;;;;;;;;;;2206867;67;1965;-65
2022/06/29 04:02:11;;;;;;;;;;;;;;;;;;2206453;59;1285;-63
2022/06/29 04:04:45;;;;;;;;;;;;;;;;;;2207454;67;1176;-65
2022/06/29 04:07:18;;;;;;;;;;;;;;;;;;2206984;67;1255;-66
2022/06/29 04:09:59;;;;;;;;;;;;;;;;;;2206413;67;1250;-66
2022/06/29 04:12:36;;;;;;;;;;;;;;;;;;2206015;59;1426;-66
2022/06/29 04:15:09;;;;;;;;;;;;;;;;;;2202941;67;1561;-65
2022/06/29 04:17:42;;;;;;;;;;;;;;;;;;2206978;67;1148;-65
2022/06/29 04:21:05;;;;;;;;;;;;;;;;;;2206976;67;1979;-66
2022/06/29 04:23:10;;;;;;;;;;;;;;;;;;2207865;67;2153;-65
2022/06/29 04:25:43;;;;;;;;;;;;;;;;;;2206634;67;1211;-65
2022/06/29 04:28:19;;;;;;;;;;;;;;;;;;2206968;59;1348;-65
2022/06/29 04:30:52;;;;;;;;;;;;;;;;;;2206778;59;1936;-66
2022/06/29 04:33:25;;;;;;;;;;;;;;;;;;2206655;67;1282;-66
2022/06/29 04:35:59;;;;;;;;;;;;;;;;;;2207052;67;1137;-65
2022/06/29 04:38:32;;;;;;;;;;;;;;;;;;2206267;67;1988;-66
2022/06/29 04:41:05;;;;;;;;;;;;;;;;;;2207017;59;2075;-66
2022/06/29 04:43:41;;;;;;;;;;;;;;;;;;2206922;67;1228;-66
2022/06/29 04:46:23;;;;;;;;;;;;;;;;;;2206419;67;1211;-64
2022/06/29 04:48:58;;;;;;;;;;;;;;;;;;2206784;67;1265;-65
2022/06/29 04:51:32;;;;;;;;;;;;;;;;;;2206944;67;1119;-66
2022/06/29 04:54:06;;;;;;;;;;;;;;;;;;2206450;67;1191;-66
2022/06/29 04:56:39;;;;;;;;;;;;;;;;;;2206380;67;1134;-66
2022/06/29 04:59:15;;;;;;;;;;;;;;;;;;2206823;67;1929;-65
2022/06/29 05:01:49;;;;;;;;;;;;;;;;;;2206831;67;1163;-66
2022/06/29 05:04:22;;;;;;;;;;;;;;;;;;2208175;67;1258;-66
2022/06/29 05:06:55;;;;;;;;;;;;;;;;;;2206760;59;6858;-66
2022/06/29 05:09:29;;;;;;;;;;;;;;;;;;2205871;67;1207;-66
2022/06/29 05:12:02;;;;;;;;;;;;;;;;;;2206327;59;1276;-66
2022/06/29 05:14:38;;;;;;;;;;;;;;;;;;2202882;59;1614;-66
2022/06/29 05:17:11;;;;;;;;;;;;;;;;;;2206424;67;1499;-66
2022/06/29 05:19:44;;;;;;;;;;;;;;;;;;2206259;67;1987;-65
2022/06/29 05:22:18;;;;;;;;;;;;;;;;;;2206296;59;1229;-65
2022/06/29 05:24:52;;;;;;;;;;;;;;;;;;2207611;67;1297;-66
2022/06/29 05:27:25;;;;;;;;;;;;;;;;;;2206729;59;1389;-65
2022/06/29 05:30:01;;;;;;;;;;;;;;;;;;2207090;67;1230;-66
2022/06/29 05:32:35;;;;;;;;;;;;;;;;;;2206209;59;2311;-65
2022/06/29 05:35:09;;;;;;;;;;;;;;;;;;2206533;59;1175;-66
2022/06/29 05:37:42;;;;;;;;;;;;;;;;;;2206297;67;1254;-66
2022/06/29 05:40:16;;;;;;;;;;;;;;;;;;2206817;67;1985;-64
2022/06/29 05:42:49;;;;;;;;;;;;;;;;;;2207193;59;2080;-65
2022/06/29 05:45:25;;;;;;;;;;;;;;;;;;2206904;67;1258;-65
2022/06/29 05:47:58;;;;;;;;;;;;;;;;;;2205756;67;1258;-65
2022/06/29 05:50:32;;;;;;;;;;;;;;;;;;2207144;67;1156;-66
2022/06/29 05:53:05;;;;;;;;;;;;;;;;;;2205486;67;1183;-65
2022/06/29 05:55:39;;;;;;;;;;;;;;;;;;2206775;67;1088;-66
2022/06/29 05:58:15;;;;;;;;;;;;;;;;;;2206839;67;1209;-65
2022/06/29 06:00:51;;;;;;;;;;;;;;;;;;2206140;59;1932;-66
2022/06/29 06:03:25;;;;;;;;;;;;;;;;;;2207386;59;1200;-66
2022/06/29 06:05:58;;;;;;;;;;;;;;;;;;2206236;67;1243;-66
2022/06/29 06:08:31;;;;;;;;;;;;;;;;;;2205428;67;1164;-65
2022/06/29 06:11:04;;;;;;;;;;;;;;;;;;2206338;59;1376;-65
2022/06/29 06:13:38;;;;;;;;;;;;;;;;;;2205979;67;1208;-66
2022/06/29 06:16:14;;;;;;;;;;;;;;;;;;2205968;67;1190;-65
2022/06/29 06:18:47;;;;;;;;;;;;;;;;;;2206029;67;1292;-66
2022/06/29 06:21:21;;;;;;;;;;;;;;;;;;2206029;67;1979;-66
2022/06/29 06:23:54;;;;;;;;;;;;;;;;;;2205978;67;1144;-66
2022/06/29 06:26:28;;;;;;;;;;;;;;;;;;2206379;67;1279;-64
2022/06/29 06:29:01;;;;;;;;;;;;;;;;;;2206285;67;1367;-65
2022/06/29 06:31:37;;;;;;;;;;;;;;;;;;2206085;59;2142;-66
2022/06/29 06:34:10;;;;;;;;;;;;;;;;;;2206305;67;1184;-65
2022/06/29 06:36:44;;;;;;;;;;;;;;;;;;2207141;67;1037;-66
2022/06/29 06:39:17;;;;;;;;;;;;;;;;;;2206267;67;1932;-65
2022/06/29 06:41:47;;;;;;;;;;;;;;;;;;2206741;59;1830;-65
2022/06/29 06:44:20;;;;;;;;;;;;;;;;;;2206291;67;1243;-65
2022/06/29 06:46:56;;;;;;;;;;;;;;;;;;2206431;67;1234;-65
2022/06/29 06:49:30;;;;;;;;;;;;;;;;;;2205660;67;1212;-65
2022/06/29 06:52:03;;;;;;;;;;;;;;;;;;2206050;60;1239;-66
2022/06/29 06:54:36;;;;;;;;;;;;;;;;;;2206001;67;1249;-66
2022/06/29 06:57:09;;;;;;;;;;;;;;;;;;2206496;67;1275;-66
2022/06/29 06:59:43;;;;;;;;;;;;;;;;;;2206529;67;1933;-65
2022/06/29 07:02:19;;;;;;;;;;;;;;;;;;2206640;59;1218;-66
2022/06/29 07:04:52;;;;;;;;;;;;;;;;;;2206024;67;1279;-66
2022/06/29 07:07:25;;;;;;;;;;;;;;;;;;2205869;67;1510;-66
2022/06/29 07:09:59;;;;;;;;;;;;;;;;;;2205680;67;1209;-66
2022/06/29 07:12:32;;;;;;;;;;;;;;;;;;2205675;59;1403;-66
2022/06/29 07:15:05;;;;;;;;;;;;;;;;;;2206161;67;1218;-66
2022/06/29 07:17:41;;;;;;;;;;;;;;;;;;2205442;67;1275;-66
2022/06/29 07:20:14;;;;;;;;;;;;;;;;;;2205608;67;1939;-66
2022/06/29 07:22:49;;;;;;;;;;;;;;;;;;2205497;67;1223;-66
2022/06/29 07:25:22;;;;;;;;;;;;;;;;;;2205975;67;1224;-66
2022/06/29 07:27:56;;;;;;;;;;;;;;;;;;2206210;59;1302;-66
2022/06/29 07:30:29;;;;;;;;;;;;;;;;;;2206120;59;2067;-66
2022/06/29 07:33:05;;;;;;;;;;;;;;;;;;2206061;67;1225;-66
2022/06/29 07:35:38;;;;;;;;;;;;;;;;;;2205889;67;1061;-66
2022/06/29 07:38:12;;;;;;;;;;;;;;;;;;2205728;67;1234;-65
2022/06/29 07:40:45;;;;;;;;;;;;;;;;;;2206992;59;2040;-64
2022/06/29 07:43:18;;;;;;;;;;;;;;;;;;2206886;67;1280;-66
2022/06/29 07:45:52;;;;;;;;;;;;;;;;;;2206423;67;1220;-66
2022/06/29 07:48:28;;;;;;;;;;;;;;;;;;2207155;59;1266;-65
2022/06/29 07:51:01;;;;;;;;;;;;;;;;;;2206571;67;1199;-66
2022/06/29 07:53:34;;;;;;;;;;;;;;;;;;2206351;67;1187;-64
2022/06/29 07:56:07;;;;;;;;;;;;;;;;;;2207002;67;1160;-66
2022/06/29 07:58:40;;;;;;;;;;;;;;;;;;2206632;67;1222;-66
2022/06/29 08:01:13;;;;;;;;;;;;;;;;;;2206763;67;1924;-66
2022/06/29 08:03:49;;;;;;;;;;;;;;;;;;2206291;59;1145;-65
2022/06/29 08:06:23;;;;;;;;;;;;;;;;;;2206496;67;1107;-66
2022/06/29 08:08:56;;;;;;;;;;;;;;;;;;2206091;67;1284;-66
2022/06/29 08:11:29;;;;;;;;;;;;;;;;;;2206272;59;1366;-66
2022/06/29 08:14:02;;;;;;;;;;;;;;;;;;2206219;67;1250;-66
2022/06/29 08:16:35;;;;;;;;;;;;;;;;;;2203087;67;2029;-65
2022/06/29 08:19:12;;;;;;;;;;;;;;;;;;2206243;67;1340;-65
2022/06/29 08:21:45;;;;;;;;;;;;;;;;;;2207075;62;1927;-65
2022/06/29 08:24:18;;;;;;;;;;;;;;;;;;2205895;67;1199;-66
2022/06/29 08:26:51;;;;;;;;;;;;;;;;;;2206935;67;1264;-66
2022/06/29 08:29:24;;;;;;;;;;;;;;;;;;2206596;59;1342;-63
2022/06/29 08:31:57;;;;;;;;;;;;;;;;;;2206851;59;1971;-66
2022/06/29 08:34:34;;;;;;;;;;;;;;;;;;2206384;67;1128;-66
2022/06/29 08:37:07;;;;;;;;;;;;;;;;;;2206558;67;1267;-65
2022/06/29 08:39:41;;;;;;;;;;;;;;;;;;2206638;67;1185;-65
2022/06/29 08:42:14;;;;;;;;;;;;;;;;;;2206440;59;1991;-65
2022/06/29 08:44:49;;;;;;;;;;;;;;;;;;2206465;67;1286;-66
2022/06/29 08:47:23;;;;;;;;;;;;;;;;;;2207169;67;1238;-65
2022/06/29 08:49:59;;;;;;;;;;;;;;;;;;2206211;67;1251;-65
2022/06/29 08:52:32;;;;;;;;;;;;;;;;;;2206446;67;1030;-66
2022/06/29 08:55:06;;;;;;;;;;;;;;;;;;2206107;67;1239;-64
2022/06/29 08:57:39;;;;;;;;;;;;;;;;;;2206792;67;1210;-65
2022/06/29 09:00:13;;;;;;;;;;;;;;;;;;2206802;67;1988;-66
2022/06/29 09:02:47;;;;;;;;;;;;;;;;;;2207913;59;1205;-66
2022/06/29 09:05:22;;;;;;;;;;;;;;;;;;2206902;67;1205;-66
2022/06/29 09:07:56;;;;;;;;;;;;;;;;;;2206231;67;1303;-65
2022/06/29 09:10:31;;;;;;;;;;;;;;;;;;2206429;59;1434;-66
2022/06/29 09:13:06;;;;;;;;;;;;;;;;;;2206436;59;1347;-65
2022/06/29 09:15:40;;;;;;;;;;;;;;;;;;2206173;67;1070;-65
2022/06/29 09:18:25;;;;;;;;;;;;;;;;;;2206028;67;1273;-65
2022/06/29 09:21:03;;;;;;;;;;;;;;;;;;2206161;67;1991;-64
2022/06/29 09:23:37;;;;;;;;;;;;;;;;;;2206670;67;1217;-65
2022/06/29 09:26:11;;;;;;;;;;;;;;;;;;2206397;67;1233;-66
2022/06/29 09:28:44;;;;;;;;;;;;;;;;;;2207118;59;1309;-66
2022/06/29 09:31:17;;;;;;;;;;;;;;;;;;2206110;59;2063;-65
2022/06/29 09:33:50;;;;;;;;;;;;;;;;;;2206386;67;1180;-66
2022/06/29 09:36:26;;;;;;;;;;;;;;;;;;2206145;67;1247;-64
2022/06/29 09:38:59;;;;;;;;;;;;;;;;;;2206712;67;1230;-66
2022/06/29 09:41:33;;;;;;;;;;;;;;;;;;2205750;59;2111;-66
2022/06/29 09:44:06;;;;;;;;;;;;;;;;;;2206586;67;1181;-66
2022/06/29 09:46:40;;;;;;;;;;;;;;;;;;2206144;67;1096;-65
2022/06/29 09:49:13;;;;;;;;;;;;;;;;;;2206512;67;1274;-65
2022/06/29 09:51:50;;;;;;;;;;;;;;;;;;2206260;67;1246;-65
2022/06/29 09:54:25;;;;;;;;;;;;;;;;;;2206761;67;1260;-65
2022/06/29 09:56:59;;;;;;;;;;;;;;;;;;2206047;67;1224;-66
2022/06/29 10:02:37;;;;;;;;;;;;;;;;;;2206421;59;1925;-65
2022/06/29 10:05:11;;;;;;;;;;;;;;;;;;2206156;67;1109;-66
2022/06/29 10:07:48;;;;;;;;;;;;;;;;;;2206338;67;1201;-65
2022/06/29 10:10:22;;;;;;;;;;;;;;;;;;2206555;67;1240;-66
2022/06/29 10:15:57;;;;;;;;;;;;;;;;;;2205763;67;1209;-66
2022/06/29 10:18:43;;;;;;;;;;;;;;;;;;2206081;67;1286;-66
2022/06/29 10:21:19;;;;;;;;;;;;;;;;;;2206168;67;1972;-65
2022/06/29 10:23:55;;;;;;;;;;;;;;;;;;2207000;60;1104;-66
2022/06/29 10:26:44;;;;;;;;;;;;;;;;;;2206346;67;1222;-66
2022/06/29 10:29:30;;;;;;;;;;;;;;;;;;2207387;59;1222;-66
2022/06/29 10:32:14;;;;;;;;;;;;;;;;;;2205863;59;2001;-65
2022/06/29 10:37:36;;;;;;;;;;;;;;;;;;2205908;67;1282;-64
2022/06/29 10:40:17;;;;;;;;;;;;;;;;;;2207009;67;1236;-66
2022/06/29 10:45:42;;;;;;;;;;;;;;;;;;2206906;67;1061;-66
2022/06/29 10:48:20;;;;;;;;;;;;;;;;;;2206548;67;1236;-66
2022/06/29 10:50:53;;;;;;;;;;;;;;;;;;2207440;67;1215;-66
2022/06/29 10:53:27;;;;;;;;;;;;;;;;;;2206658;67;1254;-65
2022/06/29 10:56:02;;;;;;;;;;;;;;;;;;2206446;67;1244;-67
2022/06/29 10:58:37;;;;;;;;;;;;;;;;;;2206544;67;1231;-66
2022/06/29 11:01:10;;;;;;;;;;;;;;;;;;2206971;67;1935;-66
2022/06/29 11:03:44;;;;;;;;;;;;;;;;;;2207776;59;1184;-66
2022/06/29 11:12:05;;;;;;;;;;;;;;;;;;2206122;59;1454;-66
2022/06/29 11:17:47;;;;;;;;;;;;;;;;;;2206429;67;1219;-66
2022/06/29 11:20:21;;;;;;;;;;;;;;;;;;2206526;67;1301;-66
2022/06/29 11:22:56;;;;;;;;;;;;;;;;;;2206327;59;1936;-66
2022/06/29 11:25:37;;;;;;;;;;;;;;;;;;2207176;67;1029;-66
2022/06/29 11:28:13;;;;;;;;;;;;;;;;;;2206987;59;1208;-66
2022/06/29 11:30:59;;;;;;;;;;;;;;;;;;2207083;59;2004;-66
2022/06/29 11:33:33;;;;;;;;;;;;;;;;;;2205966;67;1498;-66
2022/06/29 11:36:07;;;;;;;;;;;;;;;;;;2206815;67;1262;-66
2022/06/29 11:38:42;;;;;;;;;;;;;;;;;;2206556;67;1239;-65
2022/06/29 11:41:15;;;;;;;;;;;;;;;;;;2207514;67;2067;-67
2022/06/29 11:43:59;;;;;;;;;;;;;;;;;;2206949;67;1263;-67
2022/06/29 11:46:35;;;;;;;;;;;;;;;;;;2207905;67;1234;-66
2022/06/29 11:52:08;;;;;;;;;;;;;;;;;;2207565;67;1182;-66
2022/06/29 11:54:43;;;;;;;;;;;;;;;;;;2207431;67;1093;-65
2022/06/29 11:57:17;;;;;;;;;;;;;;;;;;2207340;67;1255;-65
2022/06/29 11:59:53;;;;;;;;;;;;;;;;;;2207178;67;1284;-66
2022/06/29 12:02:34;;;;;;;;;;;;;;;;;;2206440;59;2083;-65
2022/06/29 12:05:08;;;;;;;;;;;;;;;;;;2205801;67;1179;-65
2022/06/29 12:07:41;;;;;;;;;;;;;;;;;;2207214;67;1228;-64
2022/06/29 12:10:15;;;;;;;;;;;;;;;;;;2207205;67;1322;-66
2022/06/29 12:12:48;;;;;;;;;;;;;;;;;;2205846;59;1915;-64
2022/06/29 12:15:24;;;;;;;;;;;;;;;;;;2206907;67;1262;-66
2022/06/29 12:17:57;;;;;;;;;;;;;;;;;;2207369;67;1212;-66
2022/06/29 12:20:31;;;;;;;;;;;;;;;;;;2206167;67;1149;-66
2022/06/29 12:23:04;;;;;;;;;;;;;;;;;;2206420;67;1983;-66
2022/06/29 12:25:37;;;;;;;;;;;;;;;;;;2206460;67;1201;-66
2022/06/29 12:28:10;;;;;;;;;;;;;;;;;;2206533;59;1290;-65
2022/06/29 12:30:46;;;;;;;;;;;;;;;;;;2206494;59;1930;-66
2022/06/29 12:33:20;;;;;;;;;;;;;;;;;;2206394;67;1237;-65
2022/06/29 12:35:53;;;;;;;;;;;;;;;;;;2206705;67;1211;-66
2022/06/29 12:38:26;;;;;;;;;;;;;;;;;;2206539;67;1181;-66
2022/06/29 12:41:00;;;;;;;;;;;;;;;;;;2206937;59;1968;-65
2022/06/29 12:43:34;;;;;;;;;;;;;;;;;;2206695;67;1933;-66
2022/06/29 12:46:09;;;;;;;;;;;;;;;;;;2202755;67;1120;-65
2022/06/29 12:48:43;;;;;;;;;;;;;;;;;;2206621;67;1199;-66
2022/06/29 12:51:16;;;;;;;;;;;;;;;;;;2208139;67;1147;-66
2022/06/29 12:53:49;;;;;;;;;;;;;;;;;;2206304;67;1199;-65
2022/06/29 12:56:22;;;;;;;;;;;;;;;;;;2206663;67;1224;-67
2022/06/29 12:58:55;;;;;;;;;;;;;;;;;;2207175;67;1294;-66
2022/06/29 13:01:31;;;;;;;;;;;;;;;;;;2206646;67;1985;-66
2022/06/29 13:04:05;;;;;;;;;;;;;;;;;;2206538;59;1243;-65
2022/06/29 13:06:38;;;;;;;;;;;;;;;;;;2206628;67;1147;-65
2022/06/29 13:09:11;;;;;;;;;;;;;;;;;;2205704;67;1251;-66
2022/06/29 13:11:45;;;;;;;;;;;;;;;;;;2206777;59;1398;-65
2022/06/29 13:14:18;;;;;;;;;;;;;;;;;;2207134;67;1288;-66
2022/06/29 13:16:54;;;;;;;;;;;;;;;;;;2206541;67;1259;-64
2022/06/29 13:19:27;;;;;;;;;;;;;;;;;;2206055;67;1262;-64
2022/06/29 13:22:00;;;;;;;;;;;;;;;;;;2206429;67;1925;-66
2022/06/29 13:24:33;;;;;;;;;;;;;;;;;;2206161;59;1132;-66
2022/06/29 13:27:07;;;;;;;;;;;;;;;;;;2206606;67;1221;-66
2022/06/29 13:29:40;;;;;;;;;;;;;;;;;;2206161;59;1450;-66
2022/06/29 13:32:16;;;;;;;;;;;;;;;;;;2206462;59;1932;-66
2022/06/29 13:34:49;;;;;;;;;;;;;;;;;;2205462;67;1200;-66
2022/06/29 13:37:22;;;;;;;;;;;;;;;;;;2206493;67;1235;-66
2022/06/29 13:39:56;;;;;;;;;;;;;;;;;;2206647;67;1155;-66
2022/06/29 13:42:29;;;;;;;;;;;;;;;;;;2206348;59;1996;-66
2022/06/29 13:45:02;;;;;;;;;;;;;;;;;;2206222;67;1422;-67
2022/06/29 13:47:38;;;;;;;;;;;;;;;;;;2205881;59;2131;-64
2022/06/29 13:50:12;;;;;;;;;;;;;;;;;;2207000;67;1255;-66
2022/06/29 13:52:45;;;;;;;;;;;;;;;;;;2206178;67;1232;-66
2022/06/29 13:55:18;;;;;;;;;;;;;;;;;;2206354;67;1196;-66
2022/06/29 13:57:51;;;;;;;;;;;;;;;;;;2207123;67;1229;-66
2022/06/29 14:00:25;;;;;;;;;;;;;;;;;;2206576;67;1252;-66
2022/06/29 14:03:01;;;;;;;;;;;;;;;;;;2206910;59;1928;-66
2022/06/29 14:05:34;;;;;;;;;;;;;;;;;;2205597;59;1179;-66
2022/06/29 14:08:07;;;;;;;;;;;;;;;;;;2205955;67;1613;-66
2022/06/29 14:10:40;;;;;;;;;;;;;;;;;;2206605;59;1661;-66
2022/06/29 14:13:14;;;;;;;;;;;;;;;;;;2206405;59;1244;-66
2022/06/29 14:15:47;;;;;;;;;;;;;;;;;;2205921;67;1257;-64
2022/06/29 14:18:24;;;;;;;;;;;;;;;;;;2206494;67;1228;-66
2022/06/29 14:20:57;;;;;;;;;;;;;;;;;;2206683;67;1287;-64
2022/06/29 14:23:30;;;;;;;;;;;;;;;;;;2202102;67;1939;-66
2022/06/29 14:26:04;;;;;;;;;;;;;;;;;;2206725;67;1196;-65
2022/06/29 14:28:37;;;;;;;;;;;;;;;;;;2207087;67;1255;-65
2022/06/29 14:31:11;;;;;;;;;;;;;;;;;;2206433;59;2103;-66
2022/06/29 14:33:49;;;;;;;;;;;;;;;;;;2207017;67;1147;-66
2022/06/29 14:36:22;;;;;;;;;;;;;;;;;;2206538;67;1242;-65
2022/06/29 14:38:55;;;;;;;;;;;;;;;;;;2206938;67;1249;-65
2022/06/29 14:41:29;;;;;;;;;;;;;;;;;;2207012;59;2150;-65
2022/06/29 14:44:03;;;;;;;;;;;;;;;;;;2207063;67;2002;-66
2022/06/29 14:46:36;;;;;;;;;;;;;;;;;;2206113;67;1057;-66
2022/06/29 14:49:12;;;;;;;;;;;;;;;;;;2206937;67;1666;-66
2022/06/29 14:51:46;;;;;;;;;;;;;;;;;;2206739;67;1219;-65
2022/06/29 14:54:19;;;;;;;;;;;;;;;;;;2207253;67;1125;-66
2022/06/29 14:56:52;;;;;;;;;;;;;;;;;;2206986;67;1306;-66
2022/06/29 14:59:25;;;;;;;;;;;;;;;;;;2207371;67;1278;-66
2022/06/29 15:01:59;;;;;;;;;;;;;;;;;;2207434;67;1299;-66
2022/06/29 15:04:35;;;;;;;;;;;;;;;;;;2207452;67;1944;-66
2022/06/29 15:07:08;;;;;;;;;;;;;;;;;;2206492;67;1231;-64
2022/06/29 15:09:41;;;;;;;;;;;;;;;;;;2206764;67;1198;-66
2022/06/29 15:12:14;;;;;;;;;;;;;;;;;;2206628;59;1319;-66
2022/06/29 15:14:47;;;;;;;;;;;;;;;;;;2206456;67;1220;-65
2022/06/29 15:17:21;;;;;;;;;;;;;;;;;;2207258;59;1321;-67
2022/06/29 15:19:57;;;;;;;;;;;;;;;;;;2207870;67;1253;-66
2022/06/29 15:22:30;;;;;;;;;;;;;;;;;;2206536;67;1963;-66
2022/06/29 15:25:03;;;;;;;;;;;;;;;;;;2207938;67;1196;-65
2022/06/29 15:27:36;;;;;;;;;;;;;;;;;;2206418;59;1297;-65
2022/06/29 15:30:10;;;;;;;;;;;;;;;;;;2206604;59;1961;-66
2022/06/29 15:32:43;;;;;;;;;;;;;;;;;;2206284;67;1586;-65
2022/06/29 15:40:56;;;;;;;;;;;;;;;;;;2207401;59;2038;-66
2022/06/29 15:43:29;;;;;;;;;;;;;;;;;;2207229;67;1945;-67
2022/06/29 15:46:02;;;;;;;;;;;;;;;;;;2208026;67;1255;-67
2022/06/29 15:48:36;;;;;;;;;;;;;;;;;;2206245;67;1183;-66
2022/06/29 15:51:12;;;;;;;;;;;;;;;;;;2207014;67;1195;-67
2022/06/29 15:56:34;;;;;;;;;;;;;;;;;;2207362;59;1073;-67
2022/06/29 15:59:07;;;;;;;;;;;;;;;;;;2207742;67;1203;-66
2022/06/29 16:01:43;;;;;;;;;;;;;;;;;;2206923;59;1600;-66
2022/06/29 16:04:16;;;;;;;;;;;;;;;;;;2207639;59;1985;-67
2022/06/29 16:06:52;;;;;;;;;;;;;;;;;;2206998;67;1199;-67
2022/06/29 16:09:25;;;;;;;;;;;;;;;;;;2206328;67;1268;-67
2022/06/29 16:12:10;;;;;;;;;;;;;;;;;;2206340;59;1287;-67
2022/06/29 16:14:44;;;;;;;;;;;;;;;;;;2206545;59;1120;-67
2022/06/29 16:17:20;;;;;;;;;;;;;;;;;;2206186;67;1282;-67
2022/06/29 16:19:53;;;;;;;;;;;;;;;;;;2207256;67;1254;-66
2022/06/29 16:22:29;;;;;;;;;;;;;;;;;;2206874;67;1135;-67
2022/06/29 16:25:02;;;;;;;;;;;;;;;;;;2206245;67;2003;-66
2022/06/29 16:27:36;;;;;;;;;;;;;;;;;;2206297;59;1214;-67
2022/06/29 16:30:10;;;;;;;;;;;;;;;;;;2207099;59;2007;-67
2022/06/29 16:32:44;;;;;;;;;;;;;;;;;;2207754;67;1147;-67
2022/06/29 16:35:17;;;;;;;;;;;;;;;;;;2207095;67;1102;-66
2022/06/29 16:37:53;;;;;;;;;;;;;;;;;;2206631;67;1271;-66
2022/06/29 16:40:26;;;;;;;;;;;;;;;;;;2206357;67;1246;-66
2022/06/29 16:42:59;;;;;;;;;;;;;;;;;;2206756;59;2345;-66
2022/06/29 16:45:33;;;;;;;;;;;;;;;;;;2207565;67;1048;-67
2022/06/29 16:48:06;;;;;;;;;;;;;;;;;;2205954;67;1240;-66
2022/06/29 16:50:39;;;;;;;;;;;;;;;;;;2206088;60;1072;-65
2022/06/29 16:53:15;;;;;;;;;;;;;;;;;;2206634;67;1185;-66
2022/06/29 16:55:49;;;;;;;;;;;;;;;;;;2206023;60;1242;-66
2022/06/29 16:58:23;;;;;;;;;;;;;;;;;;2206637;59;1254;-66
2022/06/29 17:00:56;;;;;;;;;;;;;;;;;;2207070;67;1283;-66
2022/06/29 17:03:29;;;;;;;;;;;;;;;;;;2207661;59;1931;-65
2022/06/29 17:06:02;;;;;;;;;;;;;;;;;;2206671;67;1111;-66
2022/06/29 17:08:38;;;;;;;;;;;;;;;;;;2206415;67;1268;-67
2022/06/29 17:11:11;;;;;;;;;;;;;;;;;;2206593;59;1328;-67
2022/06/29 17:13:45;;;;;;;;;;;;;;;;;;2206001;67;1167;-66
2022/06/29 17:27:01;;;;;;;;;;;;;;;;;;2216095;59;1538;-59
2022/06/29 17:29:34;;;;;;;;;;;;;;;;;;2217798;59;2187;-56
2022/06/29 17:32:07;;;;;;;;;;;;;;;;;;2216852;59;1820;-60
2022/06/29 17:34:41;;;;;;;;;;;;;;;;;;2219843;59;1408;-54
2022/06/29 17:37:14;;;;;;;;;;;;;;;;;;2215707;59;1223;-55
2022/06/29 17:39:47;;;;;;;;;;;;;;;;;;2213264;67;1250;-53
2022/06/29 17:42:31;;;;;;;;;;;;;;;;;;2213496;59;2063;-55
2022/06/29 17:45:06;;;;;;;;;;;;;;;;;;2213594;59;1937;-57
2022/06/29 17:47:39;;;;;;;;;;;;;;;;;;2213098;67;1084;-54
2022/06/29 17:50:12;;;;;;;;;;;;;;;;;;2213529;67;1226;-53
2022/06/29 17:52:45;;;;;;;;;;;;;;;;;;2213598;67;1402;-56
2022/06/29 17:55:18;;;;;;;;;;;;;;;;;;2213338;67;1274;-55
2022/06/29 17:57:54;;;;;;;;;;;;;;;;;;2213008;59;1226;-54
2022/06/29 18:00:28;;;;;;;;;;;;;;;;;;2213055;67;1214;-55
2022/06/29 18:03:02;;;;;;;;;;;;;;;;;;2213018;59;1251;-54
2022/06/29 18:05:35;;;;;;;;;;;;;;;;;;2212774;67;1928;-54
2022/06/29 18:08:08;;;;;;;;;;;;;;;;;;2213868;66;1231;-54
2022/06/29 18:10:41;;;;;;;;;;;;;;;;;;2212838;59;1367;-55
2022/06/29 18:13:17;;;;;;;;;;;;;;;;;;2213766;59;1730;-54
2022/06/29 18:15:50;;;;;;;;;;;;;;;;;;2212993;67;1272;-55
2022/06/29 18:18:23;;;;;;;;;;;;;;;;;;2213143;67;1213;-58
2022/06/29 18:20:56;;;;;;;;;;;;;;;;;;2209460;67;1217;-58
2022/06/29 18:23:30;;;;;;;;;;;;;;;;;;2212494;59;1932;-54
2022/06/29 18:26:04;;;;;;;;;;;;;;;;;;2213280;59;1219;-54
2022/06/29 18:28:40;;;;;;;;;;;;;;;;;;2213266;59;1260;-54
2022/06/29 18:31:13;;;;;;;;;;;;;;;;;;2213009;59;1839;-54
2022/06/29 18:33:47;;;;;;;;;;;;;;;;;;2212546;67;1097;-56
2022/06/29 18:36:20;;;;;;;;;;;;;;;;;;2213287;67;1281;-55